createdAt,value
2017-10-25T00:01:38.425Z,13.20
2017-10-25T00:04:05.929Z,13.20
2017-10-25T00:06:33.424Z,13.20
2017-10-25T00:09:00.913Z,13.20
2017-10-25T00:11:28.426Z,13.20
2017-10-25T00:13:55.945Z,13.30
2017-10-25T00:16:23.442Z,13.30
2017-10-25T00:18:50.942Z,13.30
2017-10-25T00:21:22.475Z,13.30
2017-10-25T00:23:49.954Z,13.30
2017-10-25T00:26:18.216Z,13.30
2017-10-25T00:28:46.468Z,13.30
2017-10-25T00:31:14.001Z,13.30
2017-10-25T00:33:41.492Z,13.30
2017-10-25T00:36:08.985Z,13.30
2017-10-25T00:38:37.234Z,13.20
2017-10-25T00:41:04.720Z,13.20
2017-10-25T00:43:32.206Z,13.20
2017-10-25T00:45:59.756Z,13.20
2017-10-25T00:48:27.241Z,13.10
2017-10-25T00:50:54.757Z,13.10
2017-10-25T00:53:22.245Z,13.10
2017-10-25T00:55:49.750Z,13.10
2017-10-25T00:58:18.010Z,13.10
2017-10-25T01:00:45.506Z,13.10
2017-10-25T01:03:12.996Z,13.00
2017-10-25T01:05:40.483Z,13.10
2017-10-25T01:08:07.958Z,13.00
2017-10-25T01:10:36.222Z,13.00
2017-10-25T01:13:03.710Z,13.00
2017-10-25T01:15:31.235Z,13.00
2017-10-25T01:17:58.734Z,13.00
2017-10-25T01:20:26.238Z,13.00
2017-10-25T01:22:54.744Z,13.00
2017-10-25T01:25:23.008Z,12.90
2017-10-25T01:27:50.501Z,12.90
2017-10-25T01:30:18.010Z,12.90
2017-10-25T01:32:45.502Z,12.90
2017-10-25T01:35:13.766Z,12.90
2017-10-25T01:37:41.257Z,12.90
2017-10-25T01:40:08.753Z,12.90
2017-10-25T01:42:36.241Z,12.90
2017-10-25T01:45:04.492Z,12.80
2017-10-25T01:47:31.994Z,12.80
2017-10-25T01:49:59.482Z,12.90
2017-10-25T01:52:26.985Z,12.90
2017-10-25T01:54:54.469Z,12.90
2017-10-25T01:57:21.986Z,12.90
2017-10-25T01:59:49.484Z,12.90
2017-10-25T02:02:16.993Z,12.90
2017-10-25T02:04:44.486Z,12.90
2017-10-25T02:07:12.794Z,12.90
2017-10-25T02:09:40.288Z,12.90
2017-10-25T02:12:07.840Z,12.90
2017-10-25T02:14:35.338Z,12.90
2017-10-25T02:17:03.599Z,12.80
2017-10-25T02:19:31.087Z,12.80
2017-10-25T02:21:58.590Z,12.80
2017-10-25T02:24:26.087Z,12.80
2017-10-25T02:26:54.344Z,12.80
2017-10-25T02:29:21.830Z,12.80
2017-10-25T02:31:50.098Z,12.70
2017-10-25T02:34:18.344Z,12.70
2017-10-25T02:36:45.848Z,12.70
2017-10-25T02:39:13.334Z,12.70
2017-10-25T02:41:40.838Z,12.70
2017-10-25T02:44:09.092Z,12.70
2017-10-25T02:46:36.600Z,12.70
2017-10-25T02:49:04.078Z,12.70
2017-10-25T02:51:31.583Z,12.70
2017-10-25T02:53:59.233Z,12.70
2017-10-25T02:56:26.729Z,12.70
2017-10-25T02:58:54.214Z,12.70
2017-10-25T03:01:21.718Z,12.70
2017-10-25T03:03:49.970Z,12.70
2017-10-25T03:06:17.462Z,12.70
2017-10-25T03:08:45.717Z,12.80
2017-10-25T03:11:13.213Z,12.80
2017-10-25T03:13:40.765Z,12.80
2017-10-25T03:16:08.269Z,12.80
2017-10-25T03:18:35.766Z,12.80
2017-10-25T03:21:04.020Z,12.80
2017-10-25T03:23:31.518Z,12.80
2017-10-25T03:25:59.017Z,12.80
2017-10-25T03:28:26.501Z,12.90
2017-10-25T03:30:53.999Z,12.80
2017-10-25T03:33:21.488Z,12.80
2017-10-25T03:35:51.768Z,12.90
2017-10-25T03:38:20.055Z,12.80
2017-10-25T03:40:47.549Z,12.80
2017-10-25T03:43:15.036Z,12.80
2017-10-25T03:45:42.539Z,12.80
2017-10-25T03:48:10.034Z,12.80
2017-10-25T03:50:37.529Z,12.80
2017-10-25T03:53:05.789Z,12.90
2017-10-25T03:55:34.052Z,12.80
2017-10-25T03:58:01.536Z,12.90
2017-10-25T04:00:29.811Z,12.80
2017-10-25T04:02:58.073Z,12.90
2017-10-25T04:05:25.574Z,12.90
2017-10-25T04:07:53.065Z,12.90
2017-10-25T04:10:21.477Z,12.90
2017-10-25T04:12:49.739Z,12.90
2017-10-25T04:15:17.250Z,12.90
2017-10-25T04:17:44.736Z,12.90
2017-10-25T04:20:12.251Z,12.90
2017-10-25T04:22:39.745Z,13.00
2017-10-25T04:25:07.253Z,13.00
2017-10-25T04:27:35.500Z,13.00
2017-10-25T04:30:03.005Z,13.00
2017-10-25T04:32:30.501Z,13.00
2017-10-25T04:34:57.998Z,13.00
2017-10-25T04:37:26.256Z,13.00
2017-10-25T04:39:53.754Z,13.00
2017-10-25T04:42:21.252Z,13.00
2017-10-25T04:44:48.736Z,13.00
2017-10-25T04:47:17.029Z,13.10
2017-10-25T04:49:45.278Z,13.10
2017-10-25T04:52:12.780Z,13.10
2017-10-25T04:54:40.268Z,13.10
2017-10-25T04:57:07.782Z,13.10
2017-10-25T04:59:59.693Z,13.10
2017-10-25T05:02:27.967Z,13.10
2017-10-25T05:04:56.224Z,13.10
2017-10-25T05:07:23.712Z,13.10
2017-10-25T05:09:51.971Z,13.10
2017-10-25T05:12:20.265Z,13.10
2017-10-25T05:14:48.549Z,13.20
2017-10-25T05:17:16.045Z,13.10
2017-10-25T05:19:43.538Z,13.20
2017-10-25T05:22:11.058Z,13.20
2017-10-25T05:24:38.540Z,13.20
2017-10-25T05:27:06.051Z,13.20
2017-10-25T05:29:33.543Z,13.20
2017-10-25T05:32:01.050Z,13.20
2017-10-25T05:34:29.305Z,13.20
2017-10-25T05:36:56.801Z,13.10
2017-10-25T05:39:24.293Z,13.10
2017-10-25T05:41:51.788Z,13.10
2017-10-25T05:44:20.037Z,13.10
2017-10-25T05:46:47.542Z,13.10
2017-10-25T05:49:15.030Z,13.10
2017-10-25T05:51:42.593Z,13.20
2017-10-25T05:54:10.078Z,13.10
2017-10-25T05:56:37.571Z,13.10
2017-10-25T05:59:05.062Z,13.10
2017-10-25T06:01:32.698Z,13.20
2017-10-25T06:04:00.188Z,13.20
2017-10-25T06:06:27.715Z,13.20
2017-10-25T06:08:55.205Z,13.10
2017-10-25T06:11:22.701Z,13.20
2017-10-25T06:13:50.957Z,13.20
2017-10-25T06:16:18.464Z,13.20
2017-10-25T06:18:45.959Z,13.20
2017-10-25T06:21:13.473Z,13.20
2017-10-25T06:23:40.976Z,13.20
2017-10-25T06:26:08.478Z,13.30
2017-10-25T06:28:35.978Z,13.30
2017-10-25T06:31:03.505Z,13.30
2017-10-25T06:33:31.041Z,13.40
2017-10-25T06:35:59.311Z,13.50
2017-10-25T06:38:27.583Z,13.50
2017-10-25T06:40:55.085Z,13.50
2017-10-25T06:43:22.579Z,13.50
2017-10-25T06:45:50.080Z,13.50
2017-10-25T06:48:17.576Z,13.50
2017-10-25T06:50:45.076Z,13.60
2017-10-25T06:53:13.345Z,13.60
2017-10-25T06:55:40.849Z,13.60
2017-10-25T06:58:08.355Z,13.60
2017-10-25T07:00:35.858Z,13.60
2017-10-25T07:03:03.338Z,13.60
2017-10-25T07:05:30.819Z,13.60
2017-10-25T07:07:58.308Z,13.70
2017-10-25T07:10:26.560Z,13.70
2017-10-25T07:12:54.050Z,13.70
2017-10-25T07:15:22.429Z,13.70
2017-10-25T07:17:50.700Z,13.70
2017-10-25T07:20:18.955Z,13.70
2017-10-25T07:22:47.236Z,13.80
2017-10-25T07:25:14.759Z,13.70
2017-10-25T07:27:42.299Z,13.80
2017-10-25T07:30:09.900Z,13.80
2017-10-25T07:32:37.514Z,13.80
2017-10-25T07:35:04.993Z,13.80
2017-10-25T07:37:32.513Z,13.80
2017-10-25T07:40:00.074Z,13.80
2017-10-25T07:42:27.568Z,13.80
2017-10-25T07:44:55.078Z,13.80
2017-10-25T07:47:23.353Z,13.80
2017-10-25T07:49:51.624Z,13.90
2017-10-25T07:52:19.889Z,13.90
2017-10-25T07:54:47.464Z,13.90
2017-10-25T07:57:15.735Z,13.90
2017-10-25T07:59:43.992Z,13.90
2017-10-25T08:02:11.487Z,13.90
2017-10-25T08:04:38.982Z,13.90
2017-10-25T08:07:06.475Z,13.90
2017-10-25T08:09:34.053Z,13.90
2017-10-25T08:12:02.300Z,13.90
2017-10-25T08:14:29.781Z,13.90
2017-10-25T08:16:58.045Z,14.00
2017-10-25T08:19:26.300Z,14.10
2017-10-25T08:21:53.790Z,14.10
2017-10-25T08:24:22.041Z,14.30
2017-10-25T08:26:49.857Z,14.20
2017-10-25T08:29:17.407Z,14.40
2017-10-25T08:31:44.901Z,14.50
2017-10-25T08:34:12.441Z,14.60
2017-10-25T08:36:39.941Z,14.80
2017-10-25T08:39:08.236Z,15.00
2017-10-25T08:41:35.757Z,15.00
2017-10-25T08:44:03.252Z,15.10
2017-10-25T08:46:31.553Z,15.10
2017-10-25T08:48:59.041Z,15.10
2017-10-25T08:51:26.545Z,15.10
2017-10-25T08:53:54.856Z,15.10
2017-10-25T08:56:22.350Z,15.10
2017-10-25T08:58:49.841Z,15.10
2017-10-25T09:01:18.101Z,15.20
2017-10-25T09:03:45.582Z,15.20
2017-10-25T09:06:13.845Z,15.40
2017-10-25T09:08:42.120Z,15.30
2017-10-25T09:11:09.618Z,15.30
2017-10-25T09:13:37.192Z,15.30
2017-10-25T09:16:05.525Z,15.30
2017-10-25T09:18:33.781Z,15.30
2017-10-25T09:21:01.277Z,15.30
2017-10-25T09:23:28.786Z,15.20
2017-10-25T09:25:56.282Z,15.30
2017-10-25T09:28:23.764Z,15.30
2017-10-25T09:30:51.270Z,15.40
2017-10-25T09:33:18.758Z,15.50
2017-10-25T09:35:46.254Z,15.50
2017-10-25T09:38:13.748Z,15.50
2017-10-25T09:40:42.067Z,15.50
2017-10-25T09:43:09.566Z,15.50
2017-10-25T09:45:37.062Z,15.50
2017-10-25T09:48:04.540Z,15.50
2017-10-25T09:50:32.040Z,15.50
2017-10-25T09:52:59.532Z,15.60
2017-10-25T09:55:27.030Z,15.70
2017-10-25T09:57:54.521Z,16.00
2017-10-25T10:00:22.017Z,16.20
2017-10-25T10:02:49.517Z,16.40
2017-10-25T10:05:17.122Z,16.60
2017-10-25T10:07:45.522Z,16.80
2017-10-25T10:10:13.022Z,16.80
2017-10-25T10:12:40.617Z,17.00
2017-10-25T10:15:08.880Z,17.40
2017-10-25T10:17:37.124Z,17.70
2017-10-25T10:20:04.605Z,17.60
2017-10-25T10:22:32.106Z,17.70
2017-10-25T10:24:59.599Z,17.60
2017-10-25T10:27:27.096Z,17.50
2017-10-25T10:29:55.352Z,17.40
2017-10-25T10:32:22.840Z,17.40
2017-10-25T10:34:50.973Z,17.30
2017-10-25T10:37:18.468Z,17.50
2017-10-25T10:39:45.957Z,17.40
2017-10-25T10:42:13.500Z,17.30
2017-10-25T10:44:41.049Z,17.20
2017-10-25T10:47:08.561Z,17.20
2017-10-25T10:49:36.045Z,17.30
2017-10-25T10:52:04.328Z,17.20
2017-10-25T10:54:32.578Z,17.20
2017-10-25T10:57:00.176Z,17.10
2017-10-25T10:59:27.720Z,17.20
2017-10-25T11:01:55.982Z,18.00
2017-10-25T11:04:23.467Z,18.00
2017-10-25T11:06:50.964Z,19.40
2017-10-25T11:09:18.444Z,20.20
2017-10-25T11:11:45.940Z,20.50
2017-10-25T11:14:13.420Z,21.80
2017-10-25T11:16:40.907Z,23.00
2017-10-25T11:19:08.396Z,23.10
2017-10-25T11:21:36.661Z,23.40
2017-10-25T11:24:04.145Z,23.30
2017-10-25T11:26:31.636Z,22.10
2017-10-25T11:28:59.122Z,20.90
2017-10-25T11:31:26.621Z,20.00
2017-10-25T11:33:54.103Z,19.20
2017-10-25T11:36:21.588Z,18.80
2017-10-25T11:38:49.104Z,18.60
2017-10-25T11:41:16.684Z,18.40
2017-10-25T11:43:44.161Z,18.20
2017-10-25T11:46:11.652Z,18.00
2017-10-25T11:48:39.909Z,17.70
2017-10-25T11:51:08.175Z,17.70
2017-10-25T11:53:35.680Z,17.70
2017-10-25T11:56:03.194Z,17.70
2017-10-25T11:58:30.686Z,17.70
2017-10-25T12:00:58.176Z,17.80
2017-10-25T12:03:25.670Z,18.30
2017-10-25T12:05:53.176Z,19.50
2017-10-25T12:08:20.670Z,21.80
2017-10-25T12:10:48.270Z,22.30
2017-10-25T12:13:16.519Z,21.20
2017-10-25T12:15:44.021Z,21.20
2017-10-25T12:18:11.513Z,20.50
2017-10-25T12:20:39.013Z,19.80
2017-10-25T12:23:06.529Z,19.30
2017-10-25T12:25:34.031Z,18.90
2017-10-25T12:28:02.319Z,19.20
2017-10-25T12:30:30.577Z,20.20
2017-10-25T12:32:58.867Z,22.50
2017-10-25T12:35:26.395Z,22.40
2017-10-25T12:37:53.885Z,25.80
2017-10-25T12:40:22.152Z,27.20
2017-10-25T12:42:50.418Z,27.80
2017-10-25T12:45:18.694Z,27.10
2017-10-25T12:47:46.270Z,27.00
2017-10-25T12:50:14.536Z,25.50
2017-10-25T12:52:42.805Z,25.70
2017-10-25T12:55:11.071Z,27.90
2017-10-25T12:57:38.649Z,27.80
2017-10-25T13:00:06.928Z,29.10
2017-10-25T13:02:35.233Z,29.00
2017-10-25T13:05:02.756Z,28.10
2017-10-25T13:07:31.012Z,25.20
2017-10-25T13:09:58.597Z,25.20
2017-10-25T13:12:41.971Z,22.50
2017-10-25T13:15:16.355Z,22.40
2017-10-25T13:17:57.353Z,21.70
2017-10-25T13:20:24.885Z,21.40
2017-10-25T13:22:53.144Z,21.00
2017-10-25T13:25:21.412Z,21.00
2017-10-25T13:27:48.905Z,21.00
2017-10-25T13:30:16.402Z,20.50
2017-10-25T13:32:43.909Z,20.10
2017-10-25T13:35:12.236Z,19.60
2017-10-25T13:37:40.497Z,19.40
2017-10-25T13:40:07.993Z,19.30
2017-10-25T13:42:35.495Z,19.40
2017-10-25T13:45:03.007Z,19.50
2017-10-25T13:47:30.504Z,19.50
2017-10-25T13:49:57.996Z,19.50
2017-10-25T13:52:25.497Z,19.50
2017-10-25T13:54:53.754Z,20.00
2017-10-25T13:57:21.297Z,20.00
2017-10-25T13:59:48.790Z,21.30
2017-10-25T14:02:17.819Z,21.80
2017-10-25T14:04:45.308Z,21.70
2017-10-25T14:07:12.811Z,20.90
2017-10-25T14:09:41.059Z,20.00
2017-10-25T14:12:08.566Z,20.00
2017-10-25T14:14:36.052Z,19.70
2017-10-25T14:17:03.551Z,19.60
2017-10-25T14:19:31.872Z,19.30
2017-10-25T14:21:59.389Z,19.30
2017-10-25T14:24:27.642Z,19.20
2017-10-25T14:27:07.137Z,19.20
2017-10-25T14:29:34.618Z,19.10
2017-10-25T14:32:02.113Z,19.00
2017-10-25T14:34:30.364Z,18.70
2017-10-25T14:36:58.032Z,18.80
2017-10-25T14:39:26.329Z,18.50
2017-10-25T14:41:54.605Z,18.40
2017-10-25T14:44:22.849Z,18.30
2017-10-25T14:46:50.346Z,18.30
2017-10-25T14:49:18.594Z,18.20
2017-10-25T14:51:46.093Z,18.20
2017-10-25T14:54:13.623Z,18.20
2017-10-25T14:56:41.881Z,18.30
2017-10-25T14:59:09.391Z,18.20
2017-10-25T15:01:36.889Z,18.20
2017-10-25T15:04:04.373Z,18.10
2017-10-25T15:06:32.641Z,17.90
2017-10-25T15:09:00.149Z,17.80
2017-10-25T15:11:27.713Z,17.80
2017-10-25T15:13:55.202Z,17.70
2017-10-25T15:16:22.722Z,17.70
2017-10-25T15:18:50.218Z,17.60
2017-10-25T15:21:17.718Z,17.60
2017-10-25T15:23:45.221Z,17.60
2017-10-25T15:26:12.715Z,17.50
2017-10-25T15:28:40.965Z,17.50
2017-10-25T15:31:08.461Z,17.40
2017-10-25T15:33:36.761Z,17.30
2017-10-25T15:36:04.259Z,17.30
2017-10-25T15:38:31.750Z,17.30
2017-10-25T15:41:00.008Z,17.20
2017-10-25T15:43:27.547Z,17.20
2017-10-25T15:45:55.053Z,17.20
2017-10-25T15:48:22.540Z,17.20
2017-10-25T15:50:50.037Z,17.20
2017-10-25T15:53:17.527Z,17.10
2017-10-25T15:55:45.021Z,17.10
2017-10-25T15:58:12.548Z,17.10
2017-10-25T16:00:40.036Z,17.10
2017-10-25T16:03:07.540Z,17.10
2017-10-25T16:05:35.802Z,17.00
2017-10-25T16:08:03.295Z,17.00
2017-10-25T16:10:30.786Z,17.00
2017-10-25T16:12:58.322Z,17.00
2017-10-25T16:15:26.741Z,17.00
2017-10-25T16:17:54.229Z,16.90
2017-10-25T16:20:22.489Z,16.90
2017-10-25T16:22:49.968Z,16.90
2017-10-25T16:25:18.232Z,16.90
2017-10-25T16:27:46.497Z,16.90
2017-10-25T16:30:13.990Z,16.90
2017-10-25T16:32:41.477Z,16.90
2017-10-25T16:35:08.970Z,16.90
2017-10-25T16:37:36.464Z,16.80
2017-10-25T16:40:03.949Z,16.80
2017-10-25T16:42:31.447Z,16.80
2017-10-25T16:44:58.929Z,16.80
2017-10-25T16:47:27.184Z,16.80
2017-10-25T16:49:54.664Z,16.70
2017-10-25T16:52:22.169Z,16.80
2017-10-25T16:54:49.665Z,16.90
2017-10-25T16:57:17.963Z,16.90
2017-10-25T16:59:45.448Z,16.80
2017-10-25T17:02:12.957Z,16.90
2017-10-25T17:04:41.232Z,16.90
2017-10-25T17:07:09.542Z,16.90
2017-10-25T17:09:37.064Z,16.90
2017-10-25T17:12:05.350Z,16.90
2017-10-25T17:14:33.637Z,16.80
2017-10-25T17:17:01.150Z,16.80
2017-10-25T17:19:28.654Z,16.80
2017-10-25T17:21:56.149Z,16.80
2017-10-25T17:24:23.653Z,16.80
2017-10-25T17:26:51.932Z,16.70
2017-10-25T17:29:20.187Z,16.70
2017-10-25T17:31:47.690Z,16.60
2017-10-25T17:34:15.191Z,16.70
2017-10-25T17:36:42.709Z,16.70
2017-10-25T17:39:10.227Z,16.60
2017-10-25T17:41:37.741Z,16.60
2017-10-25T17:44:05.670Z,16.60
2017-10-25T17:46:33.188Z,16.60
2017-10-25T17:49:01.522Z,16.60
2017-10-25T17:51:29.142Z,16.60
2017-10-25T17:53:56.634Z,16.60
2017-10-25T17:56:24.139Z,16.60
2017-10-25T17:58:51.633Z,16.50
2017-10-25T18:01:19.895Z,16.50
2017-10-25T18:03:47.412Z,16.50
2017-10-25T18:06:15.248Z,16.50
2017-10-25T18:08:46.981Z,16.50
2017-10-25T18:11:15.136Z,16.50
2017-10-25T18:13:42.658Z,16.50
2017-10-25T18:16:10.149Z,16.50
2017-10-25T18:18:40.828Z,16.60
2017-10-25T18:21:10.545Z,16.50
2017-10-25T18:23:40.657Z,16.50
2017-10-25T18:26:08.193Z,16.50
2017-10-25T18:28:36.748Z,16.50
2017-10-25T18:31:06.530Z,16.50
2017-10-25T18:33:34.038Z,16.50
2017-10-25T18:36:01.560Z,16.50
2017-10-25T18:38:29.143Z,16.40
2017-10-25T18:40:56.658Z,16.40
2017-10-25T18:43:24.156Z,16.40
2017-10-25T18:45:51.632Z,16.30
2017-10-25T18:48:19.137Z,16.30
2017-10-25T18:50:50.923Z,16.20
2017-10-25T18:53:18.416Z,16.10
2017-10-25T18:55:46.695Z,15.90
2017-10-25T18:58:14.956Z,15.80
2017-10-25T19:00:42.473Z,15.80
2017-10-25T19:03:16.382Z,15.70
2017-10-25T19:05:45.429Z,15.70
2017-10-25T19:08:14.745Z,15.60
2017-10-25T19:10:42.249Z,15.50
2017-10-25T19:13:09.767Z,15.50
2017-10-25T19:15:37.244Z,15.50
2017-10-25T19:18:04.733Z,15.50
2017-10-25T19:20:32.240Z,15.50
2017-10-25T19:22:59.739Z,15.50
2017-10-25T19:25:27.717Z,15.50
2017-10-25T19:27:55.253Z,15.50
2017-10-25T19:30:23.563Z,15.50
2017-10-25T19:32:51.058Z,15.50
2017-10-25T19:35:18.565Z,15.50
2017-10-25T19:37:46.856Z,15.50
2017-10-25T19:40:14.342Z,15.50
2017-10-25T19:42:41.873Z,15.50
2017-10-25T19:45:09.378Z,15.50
2017-10-25T19:47:36.875Z,15.50
2017-10-25T19:50:04.403Z,15.40
2017-10-25T19:52:31.913Z,15.50
2017-10-25T19:55:00.185Z,15.40
2017-10-25T19:57:31.409Z,15.40
2017-10-25T19:59:58.891Z,15.40
2017-10-25T20:02:27.201Z,15.30
2017-10-25T20:04:54.733Z,15.30
2017-10-25T20:07:22.253Z,15.30
2017-10-25T20:09:49.752Z,15.30
2017-10-25T20:12:18.029Z,15.10
2017-10-25T20:14:46.295Z,15.10
2017-10-25T20:17:14.583Z,15.10
2017-10-25T20:19:42.862Z,15.10
2017-10-25T20:22:11.121Z,15.10
2017-10-25T20:24:38.629Z,15.10
2017-10-25T20:27:06.140Z,15.00
2017-10-25T20:29:34.923Z,15.00
2017-10-25T20:32:03.253Z,15.00
2017-10-25T20:34:30.801Z,14.90
2017-10-25T20:36:58.295Z,15.00
2017-10-25T20:39:25.812Z,15.00
2017-10-25T20:41:53.356Z,14.90
2017-10-25T20:44:21.616Z,15.00
2017-10-25T20:46:49.975Z,15.00
2017-10-25T20:49:17.631Z,15.00
2017-10-25T20:51:45.146Z,15.00
2017-10-25T20:54:12.653Z,15.00
2017-10-25T20:56:40.162Z,15.00
2017-10-25T20:59:07.656Z,15.00
2017-10-25T21:01:35.205Z,15.00
2017-10-25T21:04:03.049Z,15.00
2017-10-25T21:06:30.540Z,15.10
2017-10-25T21:08:58.097Z,15.00
2017-10-25T21:11:25.625Z,15.00
2017-10-25T21:13:53.117Z,15.00
2017-10-25T21:16:20.675Z,14.90
2017-10-25T21:18:48.240Z,14.80
2017-10-25T21:21:15.732Z,14.80
2017-10-25T21:23:43.998Z,14.80
2017-10-25T21:26:11.528Z,14.80
2017-10-25T21:28:39.018Z,14.80
2017-10-25T21:31:07.283Z,14.70
2017-10-25T21:33:34.822Z,14.70
2017-10-25T21:36:02.322Z,14.70
2017-10-25T21:38:29.818Z,14.60
2017-10-25T21:40:57.341Z,14.60
2017-10-25T21:43:24.840Z,14.50
2017-10-25T21:45:52.354Z,14.50
2017-10-25T21:48:19.893Z,14.40
2017-10-25T21:50:48.161Z,14.30
2017-10-25T21:53:15.732Z,14.30
2017-10-25T21:55:44.009Z,14.10
2017-10-25T21:58:12.293Z,14.00
2017-10-25T22:00:40.580Z,14.00
2017-10-25T22:03:08.129Z,14.00
2017-10-25T22:05:35.750Z,13.90
2017-10-25T22:08:03.257Z,13.90
2017-10-25T22:10:30.776Z,13.90
2017-10-25T22:12:58.295Z,13.90
2017-10-25T22:15:25.787Z,13.90
2017-10-25T22:17:53.316Z,13.90
2017-10-25T22:20:20.822Z,13.80
2017-10-25T22:22:48.323Z,13.80
2017-10-25T22:25:15.845Z,13.70
2017-10-25T22:27:44.112Z,13.70
2017-10-25T22:30:11.606Z,13.70
2017-10-25T22:32:39.130Z,13.70
2017-10-25T22:35:06.630Z,13.60
2017-10-25T22:37:34.177Z,13.50
2017-10-25T22:40:01.710Z,13.50
2017-10-25T22:42:29.995Z,13.40
2017-10-25T22:44:58.256Z,13.40
2017-10-25T22:47:25.799Z,13.30
2017-10-25T22:49:53.298Z,13.30
2017-10-25T22:52:20.793Z,13.30
2017-10-25T22:54:48.317Z,13.20
2017-10-25T22:57:15.815Z,13.20
2017-10-25T22:59:43.321Z,13.20
2017-10-25T23:02:11.600Z,13.40
2017-10-25T23:04:39.841Z,13.40
2017-10-25T23:07:07.329Z,13.40
2017-10-25T23:09:35.630Z,13.50
2017-10-25T23:12:03.159Z,13.50
2017-10-25T23:14:31.411Z,13.50
2017-10-25T23:16:58.915Z,13.50
2017-10-25T23:19:26.407Z,13.60
2017-10-25T23:21:54.337Z,13.60
2017-10-25T23:24:21.852Z,13.50
2017-10-25T23:26:50.119Z,13.30
2017-10-25T23:29:17.628Z,13.20
2017-10-25T23:31:45.141Z,13.20
2017-10-25T23:34:12.627Z,13.30
2017-10-25T23:36:40.885Z,13.20
2017-10-25T23:39:08.405Z,13.20
2017-10-25T23:41:35.895Z,13.10
2017-10-25T23:44:03.382Z,13.10
2017-10-25T23:46:31.648Z,12.90
2017-10-25T23:48:59.940Z,12.90
2017-10-25T23:51:28.193Z,12.90
2017-10-25T23:53:55.707Z,12.90
2017-10-25T23:56:23.199Z,13.00
2017-10-25T23:58:55.034Z,13.00
